createdAt,value
2019-01-26T00:01:40.117Z,40.20
2019-01-26T00:04:10.033Z,42.73
2019-01-26T00:06:40.056Z,40.00
2019-01-26T00:09:10.033Z,40.80
2019-01-26T00:11:39.845Z,41.00
2019-01-26T00:14:09.554Z,39.83
2019-01-26T00:16:39.369Z,40.40
2019-01-26T00:19:09.375Z,41.63
2019-01-26T00:21:38.833Z,42.37
2019-01-26T00:24:08.285Z,41.87
2019-01-26T00:26:38.425Z,41.23
2019-01-26T00:29:08.031Z,42.27
2019-01-26T00:31:37.756Z,41.27
2019-01-26T00:34:07.392Z,40.40
2019-01-26T00:36:36.945Z,41.83
2019-01-26T00:39:08.873Z,41.37
2019-01-26T00:41:38.546Z,41.73
2019-01-26T00:44:08.103Z,42.33
2019-01-26T00:46:38.916Z,42.63
2019-01-26T00:49:08.710Z,44.80
2019-01-26T00:51:38.724Z,42.27
2019-01-26T00:54:08.797Z,42.63
2019-01-26T00:56:38.520Z,43.10
2019-01-26T00:59:08.249Z,42.33
2019-01-26T01:01:38.396Z,44.77
2019-01-26T01:04:08.468Z,42.07
2019-01-26T01:06:38.152Z,42.10
2019-01-26T01:09:09.365Z,43.37
2019-01-26T01:11:39.557Z,44.13
2019-01-26T01:14:09.589Z,42.07
2019-01-26T01:16:39.340Z,45.60
2019-01-26T01:19:09.080Z,43.57
2019-01-26T01:21:39.034Z,43.27
2019-01-26T01:24:09.072Z,44.47
2019-01-26T01:26:39.001Z,44.30
2019-01-26T01:29:08.604Z,44.30
2019-01-26T01:31:38.434Z,44.53
2019-01-26T01:34:08.145Z,43.70
2019-01-26T01:36:38.032Z,47.27
2019-01-26T01:39:09.369Z,47.43
2019-01-26T01:41:39.049Z,46.40
2019-01-26T01:44:11.549Z,49.13
2019-01-26T01:46:43.047Z,44.23
2019-01-26T01:49:13.365Z,44.47
2019-01-26T01:51:43.289Z,43.73
2019-01-26T01:54:12.854Z,45.90
2019-01-26T01:56:42.986Z,47.27
2019-01-26T01:59:12.846Z,45.13
2019-01-26T02:01:42.308Z,43.87
2019-01-26T02:04:12.157Z,43.50
2019-01-26T02:06:42.480Z,42.03
2019-01-26T02:09:12.336Z,43.37
2019-01-26T02:11:43.261Z,42.60
2019-01-26T02:14:14.825Z,43.23
2019-01-26T02:16:50.051Z,43.40
2019-01-26T02:19:16.004Z,41.47
2019-01-26T02:21:46.096Z,42.90
2019-01-26T02:24:15.836Z,42.17
2019-01-26T02:26:45.556Z,41.33
2019-01-26T02:29:15.532Z,43.53
2019-01-26T02:31:45.451Z,41.13
2019-01-26T02:34:15.186Z,42.47
2019-01-26T02:36:45.653Z,41.83
2019-01-26T02:39:15.194Z,40.70
2019-01-26T02:41:44.921Z,41.13
2019-01-26T02:44:14.816Z,41.80
2019-01-26T02:46:44.621Z,40.30
2019-01-26T02:49:14.787Z,43.17
2019-01-26T02:51:45.977Z,41.77
2019-01-26T02:54:15.692Z,38.47
2019-01-26T02:56:45.566Z,41.20
2019-01-26T02:59:15.891Z,43.17
2019-01-26T03:01:45.442Z,40.40
2019-01-26T03:04:15.317Z,42.33
2019-01-26T03:06:44.853Z,39.10
2019-01-26T03:09:14.746Z,43.47
2019-01-26T03:11:44.405Z,39.73
2019-01-26T03:14:14.470Z,43.27
2019-01-26T03:16:44.604Z,38.07
2019-01-26T03:19:14.266Z,39.33
2019-01-26T03:21:43.933Z,38.73
2019-01-26T03:24:13.901Z,40.33
2019-01-26T03:26:43.880Z,40.47
2019-01-26T03:29:13.769Z,38.20
2019-01-26T03:31:43.498Z,39.93
2019-01-26T03:34:13.214Z,38.23
2019-01-26T03:36:44.009Z,37.57
2019-01-26T03:39:13.639Z,37.13
2019-01-26T03:41:45.014Z,36.90
2019-01-26T03:44:16.712Z,36.60
2019-01-26T03:46:45.917Z,38.33
2019-01-26T03:49:15.776Z,34.97
2019-01-26T03:51:45.546Z,36.23
2019-01-26T03:54:16.093Z,36.13
2019-01-26T03:56:46.353Z,35.47
2019-01-26T03:59:16.018Z,33.23
2019-01-26T04:01:46.010Z,33.90
2019-01-26T04:04:15.895Z,32.87
2019-01-26T04:06:45.668Z,31.03
2019-01-26T04:09:16.749Z,31.27
2019-01-26T04:11:47.290Z,31.07
2019-01-26T04:14:18.950Z,31.23
2019-01-26T04:16:48.798Z,29.97
2019-01-26T04:19:18.293Z,30.23
2019-01-26T04:21:47.782Z,30.23
2019-01-26T04:24:17.345Z,29.70
2019-01-26T04:26:48.640Z,28.73
2019-01-26T04:29:18.005Z,28.13
2019-01-26T04:31:47.786Z,27.00
2019-01-26T04:34:17.720Z,28.73
2019-01-26T04:36:47.370Z,28.23
2019-01-26T04:39:17.001Z,26.63
2019-01-26T04:41:47.227Z,28.30
2019-01-26T04:44:17.095Z,27.03
2019-01-26T04:46:46.922Z,27.13
2019-01-26T04:49:16.311Z,26.47
2019-01-26T04:51:46.050Z,27.07
2019-01-26T04:54:15.664Z,26.60
2019-01-26T04:56:45.536Z,26.90
2019-01-26T04:59:15.310Z,26.37
2019-01-26T05:01:44.761Z,26.37
2019-01-26T05:04:14.336Z,25.40
2019-01-26T05:06:43.790Z,26.17
2019-01-26T05:09:13.632Z,24.77
2019-01-26T05:11:43.169Z,24.93
2019-01-26T05:14:13.172Z,24.60
2019-01-26T05:16:42.616Z,25.33
2019-01-26T05:19:12.099Z,24.80
2019-01-26T05:21:44.601Z,24.80
2019-01-26T05:24:14.049Z,25.70
2019-01-26T05:26:43.551Z,23.97
2019-01-26T05:29:13.184Z,25.30
2019-01-26T05:31:42.505Z,24.33
2019-01-26T05:34:12.372Z,26.07
2019-01-26T05:36:43.061Z,25.20
2019-01-26T05:39:12.531Z,23.77
2019-01-26T05:41:42.293Z,25.73
2019-01-26T05:44:11.642Z,25.23
2019-01-26T05:46:40.988Z,24.53
2019-01-26T05:49:10.474Z,24.50
2019-01-26T05:51:40.294Z,22.40
2019-01-26T05:54:09.633Z,23.37
2019-01-26T05:56:39.243Z,23.37
2019-01-26T05:59:09.008Z,23.57
2019-01-26T06:01:38.453Z,23.37
2019-01-26T06:04:09.345Z,22.20
2019-01-26T06:06:39.230Z,22.07
2019-01-26T06:09:08.976Z,23.47
2019-01-26T06:11:38.741Z,24.60
2019-01-26T06:14:08.781Z,22.50
2019-01-26T06:16:38.634Z,22.93
2019-01-26T06:19:08.226Z,22.03
2019-01-26T06:21:37.965Z,24.37
2019-01-26T06:24:08.006Z,23.03
2019-01-26T06:26:37.689Z,23.23
2019-01-26T06:29:08.658Z,22.90
2019-01-26T06:31:38.230Z,21.60
2019-01-26T06:34:08.887Z,23.20
2019-01-26T06:36:38.243Z,22.60
2019-01-26T06:39:09.053Z,22.03
2019-01-26T06:41:38.559Z,23.67
2019-01-26T06:44:08.274Z,22.07
2019-01-26T06:46:37.666Z,20.77
2019-01-26T06:49:08.473Z,22.80
2019-01-26T06:51:39.722Z,21.00
2019-01-26T06:54:09.032Z,22.30
2019-01-26T06:56:38.714Z,22.53
2019-01-26T06:59:08.265Z,21.80
2019-01-26T07:01:38.071Z,21.47
2019-01-26T07:04:09.620Z,22.20
2019-01-26T07:06:39.645Z,21.23
2019-01-26T07:09:09.105Z,21.23
2019-01-26T07:11:38.895Z,21.23
2019-01-26T07:14:08.620Z,20.93
2019-01-26T07:16:38.709Z,22.53
2019-01-26T07:19:08.426Z,22.40
2019-01-26T07:21:38.406Z,23.30
2019-01-26T07:24:08.103Z,21.97
2019-01-26T07:26:37.757Z,21.30
2019-01-26T07:29:07.103Z,22.90
2019-01-26T07:31:37.130Z,21.87
2019-01-26T07:34:08.182Z,21.70
2019-01-26T07:36:37.536Z,20.87
2019-01-26T07:39:10.154Z,21.70
2019-01-26T07:41:41.089Z,21.10
2019-01-26T07:44:22.331Z,20.27
2019-01-26T07:46:57.622Z,19.60
2019-01-26T07:49:29.397Z,20.13
2019-01-26T07:52:09.109Z,19.37
2019-01-26T07:54:40.286Z,20.13
2019-01-26T07:57:09.772Z,19.40
2019-01-26T07:59:40.925Z,19.97
2019-01-26T08:02:10.702Z,19.53
2019-01-26T08:04:41.836Z,20.33
2019-01-26T08:07:11.280Z,20.97
2019-01-26T08:09:41.421Z,21.27
2019-01-26T08:12:11.923Z,19.50
2019-01-26T08:14:43.581Z,20.13
2019-01-26T08:17:13.505Z,20.70
2019-01-26T08:19:44.364Z,19.97
2019-01-26T08:22:14.748Z,20.73
2019-01-26T08:24:44.706Z,19.47
2019-01-26T08:27:14.184Z,20.80
2019-01-26T08:29:43.836Z,18.97
2019-01-26T08:32:15.021Z,18.63
2019-01-26T08:34:45.793Z,18.63
2019-01-26T08:37:15.450Z,19.53
2019-01-26T08:39:44.798Z,18.83
2019-01-26T08:42:14.714Z,17.57
2019-01-26T08:44:44.260Z,17.93
2019-01-26T08:47:15.597Z,17.80
2019-01-26T08:49:45.226Z,26.57
2019-01-26T08:52:14.980Z,19.17
2019-01-26T08:54:44.833Z,18.93
2019-01-26T08:57:14.945Z,18.57
2019-01-26T08:59:44.608Z,18.63
2019-01-26T09:02:25.530Z,16.67
2019-01-26T09:04:56.336Z,17.07
2019-01-26T09:07:26.797Z,17.30
2019-01-26T09:09:56.822Z,16.33
2019-01-26T09:12:26.288Z,16.30
2019-01-26T09:14:55.869Z,16.43
2019-01-26T09:17:25.345Z,16.23
2019-01-26T09:19:54.785Z,15.30
2019-01-26T09:22:27.112Z,14.53
2019-01-26T09:24:56.829Z,13.70
2019-01-26T09:27:26.281Z,13.57
2019-01-26T09:29:56.229Z,13.00
2019-01-26T09:32:25.600Z,12.63
2019-01-26T09:34:57.807Z,13.23
2019-01-26T09:37:27.230Z,12.67
2019-01-26T09:39:56.628Z,11.57
2019-01-26T09:42:27.341Z,11.90
2019-01-26T09:44:58.196Z,11.63
2019-01-26T09:47:27.882Z,11.37
2019-01-26T09:49:57.833Z,10.53
2019-01-26T09:52:27.244Z,9.70
2019-01-26T09:54:56.891Z,11.40
2019-01-26T09:57:26.757Z,9.97
2019-01-26T09:59:57.428Z,10.73
2019-01-26T10:02:27.577Z,11.03
2019-01-26T10:04:57.026Z,10.03
2019-01-26T10:07:26.565Z,10.03
2019-01-26T10:09:58.355Z,9.83
2019-01-26T10:12:27.701Z,10.13
2019-01-26T10:14:57.148Z,9.90
2019-01-26T10:17:26.627Z,10.00
2019-01-26T10:19:55.968Z,10.27
2019-01-26T10:22:25.680Z,10.33
2019-01-26T10:24:55.377Z,10.07
2019-01-26T10:27:24.825Z,10.97
2019-01-26T10:29:54.271Z,9.50
2019-01-26T10:32:23.769Z,10.23
2019-01-26T10:34:53.212Z,9.40
2019-01-26T10:37:24.163Z,10.70
2019-01-26T10:39:54.361Z,9.97
2019-01-26T10:42:24.589Z,9.27
2019-01-26T10:44:54.596Z,9.30
2019-01-26T10:47:24.068Z,9.60
2019-01-26T10:49:53.409Z,9.23
2019-01-26T10:52:23.304Z,9.23
2019-01-26T10:54:53.829Z,9.57
2019-01-26T10:57:23.272Z,8.97
2019-01-26T10:59:53.208Z,9.20
2019-01-26T11:02:23.009Z,8.73
2019-01-26T11:04:52.820Z,8.70
2019-01-26T11:07:22.265Z,8.47
2019-01-26T11:09:59.649Z,7.63
2019-01-26T11:12:30.525Z,7.77
2019-01-26T11:15:00.248Z,8.97
2019-01-26T11:17:29.614Z,9.80
2019-01-26T11:20:02.190Z,8.80
2019-01-26T11:22:31.541Z,9.77
2019-01-26T11:25:01.060Z,8.77
2019-01-26T11:27:30.761Z,9.03
2019-01-26T11:30:00.197Z,9.63
2019-01-26T11:32:29.677Z,8.13
2019-01-26T11:34:59.488Z,8.63
2019-01-26T11:37:29.307Z,7.80
2019-01-26T11:40:00.874Z,8.03
2019-01-26T11:42:30.580Z,9.60
2019-01-26T11:45:18.918Z,8.80
2019-01-26T11:47:51.211Z,8.27
2019-01-26T11:50:34.971Z,8.27
2019-01-26T11:53:04.609Z,9.10
2019-01-26T11:55:36.121Z,8.47
2019-01-26T11:58:05.497Z,9.93
2019-01-26T12:00:59.377Z,8.37
2019-01-26T12:03:41.889Z,8.53
2019-01-26T12:06:13.072Z,8.43
2019-01-26T12:08:42.819Z,8.03
2019-01-26T12:11:13.446Z,8.00
2019-01-26T12:13:44.434Z,9.03
2019-01-26T12:16:13.813Z,8.63
2019-01-26T12:18:43.557Z,9.23
2019-01-26T12:21:12.898Z,9.53
2019-01-26T12:23:43.732Z,8.83
2019-01-26T12:26:13.331Z,8.30
2019-01-26T12:28:42.674Z,9.67
2019-01-26T12:31:13.033Z,8.20
2019-01-26T12:33:42.692Z,7.20
2019-01-26T12:36:12.132Z,7.30
2019-01-26T12:38:41.477Z,7.13
2019-01-26T12:41:11.416Z,7.43
2019-01-26T12:43:40.867Z,8.17
2019-01-26T12:46:10.632Z,7.47
2019-01-26T12:48:40.385Z,8.33
2019-01-26T12:51:09.724Z,7.97
2019-01-26T12:53:39.515Z,7.47
2019-01-26T12:56:09.031Z,7.73
2019-01-26T12:58:38.518Z,6.80
2019-01-26T13:01:08.217Z,7.47
2019-01-26T13:03:37.718Z,7.40
2019-01-26T13:06:08.540Z,7.30
2019-01-26T13:08:37.884Z,7.60
2019-01-26T13:11:12.906Z,6.90
2019-01-26T13:13:43.981Z,6.77
2019-01-26T13:16:14.372Z,6.80
2019-01-26T13:18:44.097Z,7.23
2019-01-26T13:21:13.988Z,6.73
2019-01-26T13:23:44.490Z,7.77
2019-01-26T13:26:14.861Z,7.57
2019-01-26T13:28:44.685Z,7.60
2019-01-26T13:31:16.288Z,8.10
2019-01-26T13:33:46.852Z,7.93
2019-01-26T13:36:17.967Z,8.37
2019-01-26T13:38:48.680Z,8.27
2019-01-26T13:41:18.248Z,9.17
2019-01-26T13:43:47.964Z,8.40
2019-01-26T13:46:19.374Z,8.77
2019-01-26T13:48:48.855Z,8.70
2019-01-26T13:51:18.304Z,9.07
2019-01-26T13:53:47.765Z,7.90
2019-01-26T13:56:17.460Z,8.17
2019-01-26T13:58:48.537Z,8.93
2019-01-26T14:01:18.431Z,8.50
2019-01-26T14:03:47.826Z,9.10
2019-01-26T14:06:17.534Z,8.87
2019-01-26T14:08:46.923Z,8.80
2019-01-26T14:11:16.386Z,9.00
2019-01-26T14:13:49.285Z,8.50
2019-01-26T14:16:19.349Z,9.33
2019-01-26T14:18:49.666Z,9.97
2019-01-26T14:21:19.013Z,9.40
2019-01-26T14:23:49.805Z,9.27
2019-01-26T14:26:21.169Z,9.77
2019-01-26T14:28:51.244Z,9.33
2019-01-26T14:31:20.686Z,9.67
2019-01-26T14:33:50.955Z,10.17
2019-01-26T14:36:20.608Z,9.73
2019-01-26T14:38:50.501Z,9.67
2019-01-26T14:41:20.052Z,9.63
2019-01-26T14:43:50.235Z,9.83
2019-01-26T14:46:19.601Z,10.67
2019-01-26T14:48:49.005Z,11.00
2019-01-26T14:51:18.453Z,11.10
2019-01-26T14:53:48.006Z,12.10
2019-01-26T14:56:18.053Z,12.23
2019-01-26T14:58:48.826Z,11.93
2019-01-26T15:01:18.290Z,11.47
2019-01-26T15:03:48.864Z,12.70
2019-01-26T15:06:20.116Z,12.17
2019-01-26T15:08:49.874Z,11.87
2019-01-26T15:11:30.516Z,11.53
2019-01-26T15:14:00.379Z,11.20
2019-01-26T15:16:29.997Z,12.27
2019-01-26T15:18:59.485Z,12.03
2019-01-26T15:21:29.769Z,12.27
2019-01-26T15:24:01.953Z,11.37
2019-01-26T15:26:31.700Z,12.43
2019-01-26T15:29:01.776Z,11.20
2019-01-26T15:31:31.480Z,11.83
2019-01-26T15:34:12.846Z,10.90
2019-01-26T15:36:44.310Z,10.97
2019-01-26T15:39:15.648Z,10.27
2019-01-26T15:41:49.715Z,11.03
2019-01-26T15:44:20.621Z,10.37
2019-01-26T15:46:56.979Z,61.60
2019-01-26T15:49:29.301Z,18.57
2019-01-26T15:51:58.902Z,12.60
2019-01-26T15:54:28.633Z,11.77
2019-01-26T15:56:58.726Z,12.53
2019-01-26T15:59:28.089Z,12.37
2019-01-26T16:01:57.434Z,12.93
2019-01-26T16:04:26.810Z,12.20
2019-01-26T16:06:56.753Z,12.73
2019-01-26T16:09:27.615Z,13.10
2019-01-26T16:11:57.367Z,12.93
2019-01-26T16:14:26.712Z,13.07
2019-01-26T16:16:56.777Z,12.53
2019-01-26T16:19:26.245Z,13.00
2019-01-26T16:21:55.608Z,11.83
2019-01-26T16:24:25.948Z,13.03
2019-01-26T16:26:55.837Z,12.00
2019-01-26T16:29:30.263Z,12.10
2019-01-26T16:32:05.111Z,13.03
2019-01-26T16:34:35.396Z,12.83
2019-01-26T16:37:11.173Z,13.47
2019-01-26T16:39:42.955Z,14.60
2019-01-26T16:42:12.830Z,14.10
2019-01-26T16:44:43.467Z,14.93
2019-01-26T16:47:13.755Z,14.10
2019-01-26T16:49:43.822Z,12.70
2019-01-26T16:52:14.108Z,13.50
2019-01-26T16:54:44.787Z,13.93
2019-01-26T16:57:15.876Z,12.80
2019-01-26T16:59:46.073Z,12.53
2019-01-26T17:02:15.587Z,13.53
2019-01-26T17:04:44.890Z,14.20
2019-01-26T17:07:14.821Z,13.27
2019-01-26T17:09:45.757Z,13.80
2019-01-26T17:12:15.515Z,14.10
2019-01-26T17:14:44.966Z,14.60
2019-01-26T17:17:14.430Z,14.17
2019-01-26T17:19:43.899Z,15.00
2019-01-26T17:22:13.755Z,14.40
2019-01-26T17:24:43.233Z,16.00
2019-01-26T17:27:13.979Z,16.27
2019-01-26T17:29:44.346Z,19.73
2019-01-26T17:32:15.209Z,18.97
2019-01-26T17:34:44.722Z,17.70
2019-01-26T17:37:15.793Z,21.30
2019-01-26T17:39:45.263Z,18.47
2019-01-26T17:42:16.172Z,19.07
2019-01-26T17:44:46.774Z,18.73
2019-01-26T17:47:16.907Z,17.50
2019-01-26T17:49:46.590Z,21.07
2019-01-26T17:52:16.673Z,24.77
2019-01-26T17:54:46.584Z,20.17
2019-01-26T17:57:16.493Z,21.27
2019-01-26T17:59:47.818Z,21.03
2019-01-26T18:02:17.288Z,22.53
2019-01-26T18:04:46.736Z,21.43
2019-01-26T18:07:17.187Z,21.40
2019-01-26T18:09:47.170Z,23.57
2019-01-26T18:12:17.410Z,24.73
2019-01-26T18:14:50.975Z,24.10
2019-01-26T18:17:20.525Z,24.77
2019-01-26T18:19:51.559Z,25.07
2019-01-26T18:22:23.112Z,25.20
2019-01-26T18:24:53.082Z,24.83
2019-01-26T18:27:25.827Z,25.33
2019-01-26T18:29:56.201Z,25.43
2019-01-26T18:32:25.593Z,26.40
2019-01-26T18:34:55.196Z,27.13
2019-01-26T18:37:25.178Z,25.27
2019-01-26T18:39:55.005Z,27.60
2019-01-26T18:42:24.455Z,25.27
2019-01-26T18:44:54.069Z,27.00
2019-01-26T18:47:24.575Z,27.47
2019-01-26T18:49:54.017Z,27.57
2019-01-26T18:52:23.378Z,26.10
2019-01-26T18:54:53.483Z,27.50
2019-01-26T18:57:23.229Z,27.97
2019-01-26T18:59:52.840Z,26.93
2019-01-26T19:02:22.570Z,27.10
2019-01-26T19:04:52.617Z,27.07
2019-01-26T19:07:22.074Z,29.43
2019-01-26T19:09:51.557Z,28.97
2019-01-26T19:12:21.663Z,30.33
2019-01-26T19:14:51.105Z,27.60
2019-01-26T19:17:20.888Z,29.20
2019-01-26T19:19:51.705Z,28.50
2019-01-26T19:22:21.261Z,28.50
2019-01-26T19:24:51.030Z,28.80
2019-01-26T19:27:21.852Z,29.77
2019-01-26T19:29:51.197Z,29.47
2019-01-26T19:32:21.041Z,29.57
2019-01-26T19:34:50.492Z,31.20
2019-01-26T19:37:20.559Z,31.30
2019-01-26T19:39:50.098Z,30.20
2019-01-26T19:42:19.598Z,31.23
2019-01-26T19:44:49.814Z,33.07
2019-01-26T19:47:22.806Z,31.03
2019-01-26T19:49:52.702Z,30.10
2019-01-26T19:52:22.501Z,30.43
2019-01-26T19:54:52.526Z,30.47
2019-01-26T19:57:22.374Z,29.37
2019-01-26T19:59:53.544Z,28.73
2019-01-26T20:02:23.286Z,30.73
2019-01-26T20:04:52.825Z,31.80
2019-01-26T20:07:22.363Z,30.60
2019-01-26T20:09:52.029Z,33.43
2019-01-26T20:12:22.078Z,32.20
2019-01-26T20:14:51.529Z,32.03
2019-01-26T20:17:21.235Z,32.83
2019-01-26T20:19:51.412Z,32.17
2019-01-26T20:22:20.866Z,31.47
2019-01-26T20:24:57.636Z,32.77
2019-01-26T20:27:27.787Z,32.10
2019-01-26T20:29:57.263Z,31.20
2019-01-26T20:32:26.992Z,34.33
2019-01-26T20:34:56.934Z,33.33
2019-01-26T20:37:26.414Z,33.87
2019-01-26T20:39:55.904Z,34.40
2019-01-26T20:42:25.278Z,32.97
2019-01-26T20:44:55.245Z,34.50
2019-01-26T20:47:24.722Z,33.33
2019-01-26T20:49:54.726Z,33.67
2019-01-26T20:52:25.790Z,34.83
2019-01-26T20:54:55.545Z,33.40
2019-01-26T20:57:25.437Z,34.40
2019-01-26T20:59:55.253Z,33.50
2019-01-26T21:02:25.056Z,32.60
2019-01-26T21:04:54.861Z,32.13
2019-01-26T21:07:24.473Z,32.00
2019-01-26T21:09:54.609Z,32.57
2019-01-26T21:12:24.300Z,32.50
2019-01-26T21:14:54.112Z,31.67
2019-01-26T21:17:38.638Z,31.50
2019-01-26T21:20:10.851Z,32.00
2019-01-26T21:22:40.240Z,31.90
2019-01-26T21:25:11.995Z,29.60
2019-01-26T21:27:44.518Z,30.30
2019-01-26T21:30:20.034Z,31.33
2019-01-26T21:32:49.468Z,31.03
2019-01-26T21:35:19.205Z,33.13
2019-01-26T21:37:50.096Z,31.40
2019-01-26T21:40:21.914Z,31.47
2019-01-26T21:42:51.512Z,32.57
2019-01-26T21:45:21.197Z,33.40
2019-01-26T21:47:50.845Z,31.80
2019-01-26T21:50:22.609Z,32.10
2019-01-26T21:52:52.255Z,34.37
2019-01-26T21:55:22.213Z,33.13
2019-01-26T21:57:51.937Z,32.93
2019-01-26T22:00:27.220Z,32.23
2019-01-26T22:02:56.981Z,32.73
2019-01-26T22:05:26.893Z,33.40
2019-01-26T22:07:56.740Z,33.70
2019-01-26T22:10:28.032Z,34.00
2019-01-26T22:12:57.772Z,34.60
2019-01-26T22:15:27.836Z,32.93
2019-01-26T22:17:57.897Z,35.57
2019-01-26T22:20:28.716Z,33.63
2019-01-26T22:22:58.998Z,34.03
2019-01-26T22:25:29.133Z,33.40
2019-01-26T22:28:00.393Z,34.57
2019-01-26T22:30:32.094Z,35.40
2019-01-26T22:33:01.997Z,35.47
2019-01-26T22:35:31.618Z,35.93
2019-01-26T22:38:01.365Z,36.43
2019-01-26T22:40:34.753Z,37.83
2019-01-26T22:43:05.192Z,36.37
2019-01-26T22:45:35.497Z,35.23
2019-01-26T22:48:05.155Z,36.30
2019-01-26T22:50:35.296Z,36.83
2019-01-26T22:53:05.494Z,37.70
2019-01-26T22:55:35.470Z,37.20
2019-01-26T22:58:05.449Z,40.03
2019-01-26T23:00:52.989Z,40.17
2019-01-26T23:03:29.009Z,39.63
2019-01-26T23:06:20.437Z,39.60
2019-01-26T23:08:50.320Z,40.50
2019-01-26T23:11:42.436Z,43.03
2019-01-26T23:14:31.723Z,41.63
2019-01-26T23:17:22.333Z,43.97
2019-01-26T23:19:54.690Z,43.23
2019-01-26T23:22:47.899Z,45.63
2019-01-26T23:25:31.868Z,43.17
2019-01-26T23:28:07.304Z,47.57
2019-01-26T23:31:11.320Z,44.37
2019-01-26T23:33:40.870Z,45.00
2019-01-26T23:36:10.718Z,46.43
2019-01-26T23:38:40.192Z,47.57
2019-01-26T23:41:09.786Z,45.83
2019-01-26T23:43:40.127Z,47.43
2019-01-26T23:46:09.875Z,48.90
2019-01-26T23:48:39.689Z,48.10
2019-01-26T23:51:09.276Z,46.30
2019-01-26T23:53:39.137Z,46.30
2019-01-26T23:56:08.770Z,46.77
2019-01-26T23:58:38.355Z,46.47
